createdAt,value
2016-12-20T00:00:57.904Z,1.2
2016-12-20T00:01:57.943Z,1.26
2016-12-20T00:02:57.960Z,1.15
2016-12-20T00:03:57.839Z,1.17
2016-12-20T00:04:57.855Z,1.11
2016-12-20T00:05:57.971Z,1.22
2016-12-20T00:06:57.899Z,1.24
2016-12-20T00:07:58.001Z,1.24
2016-12-20T00:08:57.982Z,1.18
2016-12-20T00:09:57.934Z,1.2
2016-12-20T00:10:58.058Z,1.24
2016-12-20T00:11:57.967Z,1.26
2016-12-20T00:12:57.956Z,1.4
2016-12-20T00:13:57.985Z,1.29
2016-12-20T00:14:57.926Z,1.4
2016-12-20T00:15:58.047Z,1.46
2016-12-20T00:16:57.959Z,1.36
2016-12-20T00:17:58.164Z,1.3
2016-12-20T00:18:57.948Z,1.22
2016-12-20T00:19:57.899Z,1.18
2016-12-20T00:20:58.033Z,1.36
2016-12-20T00:21:57.928Z,1.4
2016-12-20T00:22:57.970Z,1.32
2016-12-20T00:23:57.960Z,1.38
2016-12-20T00:24:57.983Z,1.51
2016-12-20T00:25:57.962Z,1.56
2016-12-20T00:26:57.933Z,1.47
2016-12-20T00:27:57.988Z,1.5
2016-12-20T00:28:57.995Z,1.29
2016-12-20T00:29:57.980Z,1.29
2016-12-20T00:30:58.011Z,1.38
2016-12-20T00:31:57.928Z,1.46
2016-12-20T00:32:58.040Z,1.38
2016-12-20T00:33:58.117Z,1.39
2016-12-20T00:34:57.987Z,1.42
2016-12-20T00:35:57.936Z,1.3
2016-12-20T00:36:57.935Z,1.15
2016-12-20T00:37:58.063Z,1.2
2016-12-20T00:38:57.949Z,1.21
2016-12-20T00:39:58.007Z,1.2
2016-12-20T00:40:57.961Z,1.33
2016-12-20T00:41:58.165Z,1.24
2016-12-20T00:42:58.020Z,1.18
2016-12-20T00:43:57.974Z,1.2
2016-12-20T00:44:58.090Z,1.26
2016-12-20T00:45:58.045Z,1.35
2016-12-20T00:46:58.160Z,1.29
2016-12-20T00:47:58.102Z,1.39
2016-12-20T00:48:58.092Z,1.46
2016-12-20T00:49:58.954Z,1.74
2016-12-20T00:50:58.040Z,1.61
2016-12-20T00:51:58.157Z,1.64
2016-12-20T00:52:58.098Z,1.61
2016-12-20T00:53:58.091Z,1.28
2016-12-20T00:54:58.065Z,1.5
2016-12-20T00:55:58.047Z,1.46
2016-12-20T00:56:57.990Z,1.35
2016-12-20T00:57:58.053Z,1.33
2016-12-20T00:58:58.022Z,1.36
2016-12-20T00:59:58.005Z,1.44
2016-12-20T01:00:58.039Z,1.39
2016-12-20T01:01:58.060Z,1.36
2016-12-20T01:02:58.117Z,1.35
2016-12-20T01:03:58.072Z,1.36
2016-12-20T01:04:58.134Z,1.32
2016-12-20T01:05:58.325Z,1.38
2016-12-20T01:06:58.035Z,1.22
2016-12-20T01:07:58.081Z,1.36
2016-12-20T01:08:58.088Z,1.38
2016-12-20T01:09:58.116Z,1.28
2016-12-20T01:10:58.121Z,1.22
2016-12-20T01:11:58.160Z,1.18
2016-12-20T01:12:58.065Z,1.26
2016-12-20T01:13:58.123Z,1.32
2016-12-20T01:14:58.107Z,1.66
2016-12-20T01:15:58.134Z,1.54
2016-12-20T01:16:58.139Z,1.42
2016-12-20T01:17:58.205Z,1.42
2016-12-20T01:18:58.114Z,1.39
2016-12-20T01:19:58.176Z,1.29
2016-12-20T01:20:58.180Z,1.36
2016-12-20T01:21:58.169Z,1.4
2016-12-20T01:22:58.167Z,1.46
2016-12-20T01:23:58.080Z,1.47
2016-12-20T01:24:58.141Z,1.54
2016-12-20T01:25:58.199Z,1.53
2016-12-20T01:26:58.127Z,1.48
2016-12-20T01:27:58.138Z,1.44
2016-12-20T01:28:58.146Z,1.47
2016-12-20T01:29:58.148Z,1.53
2016-12-20T01:30:58.156Z,1.46
2016-12-20T01:31:58.096Z,1.5
2016-12-20T01:32:58.230Z,1.26
2016-12-20T01:33:58.224Z,1.29
2016-12-20T01:34:58.153Z,1.29
2016-12-20T01:35:58.130Z,1.24
2016-12-20T01:36:58.126Z,1.17
2016-12-20T01:37:58.404Z,1.17
2016-12-20T01:38:58.128Z,1.38
2016-12-20T01:39:58.190Z,1.38
2016-12-20T01:40:58.176Z,1.29
2016-12-20T01:41:58.188Z,1.21
2016-12-20T01:42:58.179Z,1.3
2016-12-20T01:43:58.194Z,1.18
2016-12-20T01:44:58.295Z,1.2
2016-12-20T01:45:58.252Z,1.17
2016-12-20T01:46:58.271Z,1.21
2016-12-20T01:47:58.200Z,1.32
2016-12-20T01:48:58.316Z,1.32
2016-12-20T01:49:58.200Z,1.28
2016-12-20T01:50:58.154Z,1.26
2016-12-20T01:51:58.275Z,1.2
2016-12-20T01:52:58.202Z,1.2
2016-12-20T01:53:58.259Z,1.07
2016-12-20T01:54:58.202Z,1.1
2016-12-20T01:55:58.283Z,0.99
2016-12-20T01:56:58.224Z,0.89
2016-12-20T01:57:58.306Z,0.79
2016-12-20T01:58:58.158Z,0.71
2016-12-20T01:59:58.235Z,0.74
2016-12-20T02:00:58.244Z,0.67
2016-12-20T02:01:58.186Z,0.58
2016-12-20T02:02:58.258Z,0.47
2016-12-20T02:03:58.180Z,0.58
2016-12-20T02:04:58.255Z,0.5
2016-12-20T02:05:58.304Z,0.45
2016-12-20T02:06:58.247Z,0.41
2016-12-20T02:07:58.262Z,0.41
2016-12-20T02:08:58.245Z,0.37
2016-12-20T02:09:58.471Z,0.41
2016-12-20T02:10:58.214Z,0.42
2016-12-20T02:11:58.205Z,0.35
2016-12-20T02:12:58.273Z,0.41
2016-12-20T02:13:58.323Z,0.34
2016-12-20T02:14:58.289Z,0.24
2016-12-20T02:15:58.284Z,0.2
2016-12-20T02:16:58.204Z,0.26
2016-12-20T02:17:58.277Z,0.16
2016-12-20T02:18:58.275Z,-0.09
2016-12-20T02:19:58.297Z,0.02
2016-12-20T02:20:58.308Z,-0.05
2016-12-20T02:21:58.349Z,0.03
2016-12-20T02:22:58.339Z,-0.05
2016-12-20T02:23:58.305Z,-0.01
2016-12-20T02:24:58.321Z,0.02
2016-12-20T02:25:58.459Z,-0.01
2016-12-20T02:26:58.350Z,0.05
2016-12-20T02:27:58.303Z,-0.05
2016-12-20T02:28:58.356Z,-0.01
2016-12-20T02:29:58.250Z,-0.04
2016-12-20T02:30:58.308Z,-0.04
2016-12-20T02:31:58.269Z,-0.01
2016-12-20T02:32:58.257Z,-0.09
2016-12-20T02:33:58.395Z,-0.07
2016-12-20T02:34:58.315Z,0.06
2016-12-20T02:35:58.279Z,0.08
2016-12-20T02:36:58.302Z,0.08
2016-12-20T02:37:58.273Z,0.03
2016-12-20T02:38:58.267Z,0.05
2016-12-20T02:39:58.354Z,-0.04
2016-12-20T02:40:58.280Z,-0.13
2016-12-20T02:41:58.402Z,-0.02
2016-12-20T02:42:58.425Z,-0.07
2016-12-20T02:43:58.334Z,-0.16
2016-12-20T02:44:58.386Z,-0.04
2016-12-20T02:45:58.393Z,-0.23
2016-12-20T02:46:58.308Z,-0.2
2016-12-20T02:47:58.342Z,-0.19
2016-12-20T02:48:58.453Z,-0.34
2016-12-20T02:49:58.299Z,-0.31
2016-12-20T02:50:58.318Z,-0.38
2016-12-20T02:51:58.461Z,-0.41
2016-12-20T02:52:58.379Z,-0.45
2016-12-20T02:53:58.313Z,-0.38
2016-12-20T02:54:58.448Z,-0.45
2016-12-20T02:55:58.406Z,-0.4
2016-12-20T02:56:58.392Z,-0.38
2016-12-20T02:57:58.388Z,-0.43
2016-12-20T02:58:58.373Z,-0.31
2016-12-20T02:59:58.340Z,-0.33
2016-12-20T03:00:58.395Z,-0.25
2016-12-20T03:01:58.412Z,-0.19
2016-12-20T03:02:58.387Z,-0.15
2016-12-20T03:03:58.337Z,-0.28
2016-12-20T03:04:58.396Z,-0.74
2016-12-20T03:05:58.466Z,-0.49
2016-12-20T03:06:58.582Z,-0.41
2016-12-20T03:07:58.426Z,-0.46
2016-12-20T03:08:58.422Z,-0.3
2016-12-20T03:09:58.407Z,-0.22
2016-12-20T03:10:58.482Z,-0.23
2016-12-20T03:11:58.439Z,-0.25
2016-12-20T03:12:58.415Z,-0.3
2016-12-20T03:13:58.468Z,-0.22
2016-12-20T03:14:58.492Z,-0.31
2016-12-20T03:15:58.427Z,-0.36
2016-12-20T03:16:58.459Z,-0.31
2016-12-20T03:17:58.448Z,-0.23
2016-12-20T03:18:58.388Z,-0.52
2016-12-20T03:19:58.389Z,-0.55
2016-12-20T03:20:58.446Z,-0.52
2016-12-20T03:21:58.508Z,-0.59
2016-12-20T03:22:58.519Z,-0.7
2016-12-20T03:23:58.455Z,-0.64
2016-12-20T03:24:58.490Z,-0.69
2016-12-20T03:25:58.484Z,-0.48
2016-12-20T03:26:58.493Z,-0.45
2016-12-20T03:27:58.401Z,-0.31
2016-12-20T03:28:58.408Z,-0.43
2016-12-20T03:29:58.582Z,-0.37
2016-12-20T03:30:58.468Z,-0.43
2016-12-20T03:31:58.522Z,-0.31
2016-12-20T03:32:58.559Z,-0.4
2016-12-20T03:33:58.477Z,-0.3
2016-12-20T03:34:58.539Z,-0.28
2016-12-20T03:35:58.443Z,-0.46
2016-12-20T03:36:58.571Z,-0.37
2016-12-20T03:37:58.559Z,-0.49
2016-12-20T03:38:58.489Z,-0.43
2016-12-20T03:39:58.491Z,-0.52
2016-12-20T03:40:58.456Z,-0.51
2016-12-20T03:41:58.570Z,-0.49
2016-12-20T03:42:58.584Z,-0.51
2016-12-20T03:43:58.513Z,-0.52
2016-12-20T03:44:58.455Z,-0.56
2016-12-20T03:45:58.541Z,-0.49
2016-12-20T03:46:58.539Z,-0.45
2016-12-20T03:47:58.535Z,-0.54
2016-12-20T03:48:58.531Z,-0.66
2016-12-20T03:49:58.527Z,-0.69
2016-12-20T03:50:58.536Z,-0.79
2016-12-20T03:51:58.469Z,-0.72
2016-12-20T03:52:58.482Z,-0.74
2016-12-20T03:53:58.478Z,-0.93
2016-12-20T03:54:58.479Z,-0.96
2016-12-20T03:55:58.537Z,-1.01
2016-12-20T03:56:58.630Z,-1.06
2016-12-20T03:57:58.814Z,-1.06
2016-12-20T03:58:58.553Z,-1.11
2016-12-20T03:59:58.621Z,-1.22
2016-12-20T04:00:58.680Z,-1.01
2016-12-20T04:01:58.519Z,-1.07
2016-12-20T04:02:58.509Z,-0.95
2016-12-20T04:03:58.504Z,-0.92
2016-12-20T04:04:58.565Z,-0.87
2016-12-20T04:05:58.570Z,-0.84
2016-12-20T04:06:58.633Z,-0.76
2016-12-20T04:07:58.536Z,-0.66
2016-12-20T04:08:58.516Z,-0.55
2016-12-20T04:09:58.651Z,-0.61
2016-12-20T04:10:58.578Z,-0.58
2016-12-20T04:11:58.548Z,-0.41
2016-12-20T04:12:58.693Z,-0.31
2016-12-20T04:13:58.539Z,-0.3
2016-12-20T04:14:58.625Z,-0.28
2016-12-20T04:15:58.664Z,-0.18
2016-12-20T04:16:58.601Z,-0.27
2016-12-20T04:17:58.660Z,-0.23
2016-12-20T04:18:58.556Z,-0.41
2016-12-20T04:19:58.629Z,-0.45
2016-12-20T04:20:58.623Z,-0.46
2016-12-20T04:21:58.614Z,-0.58
2016-12-20T04:22:58.576Z,-0.46
2016-12-20T04:23:58.680Z,-0.49
2016-12-20T04:24:58.633Z,-0.67
2016-12-20T04:25:58.631Z,-0.64
2016-12-20T04:26:58.669Z,-0.61
2016-12-20T04:27:58.675Z,-0.58
2016-12-20T04:28:58.578Z,-0.54
2016-12-20T04:29:58.686Z,-0.51
2016-12-20T04:30:58.636Z,-0.54
2016-12-20T04:31:58.684Z,-0.43
2016-12-20T04:32:58.637Z,-0.43
2016-12-20T04:33:58.625Z,-0.48
2016-12-20T04:34:58.589Z,-0.4
2016-12-20T04:35:58.679Z,-0.46
2016-12-20T04:36:58.647Z,-0.54
2016-12-20T04:37:58.665Z,-0.66
2016-12-20T04:38:58.731Z,-0.59
2016-12-20T04:39:58.672Z,-0.69
2016-12-20T04:40:58.613Z,-0.7
2016-12-20T04:41:58.664Z,-0.56
2016-12-20T04:42:58.674Z,-0.61
2016-12-20T04:43:58.664Z,-0.52
2016-12-20T04:44:58.619Z,-0.49
2016-12-20T04:45:58.673Z,-0.43
2016-12-20T04:46:58.691Z,-0.36
2016-12-20T04:47:58.691Z,-0.49
2016-12-20T04:48:58.678Z,-0.43
2016-12-20T04:49:59.287Z,-0.43
2016-12-20T04:50:58.629Z,-0.56
2016-12-20T04:51:58.700Z,-0.62
2016-12-20T04:52:58.636Z,-0.51
2016-12-20T04:53:58.644Z,-0.49
2016-12-20T04:54:58.707Z,-0.56
2016-12-20T04:55:58.644Z,-0.62
2016-12-20T04:56:58.706Z,-0.58
2016-12-20T04:57:58.718Z,-0.56
2016-12-20T04:58:58.777Z,-0.64
2016-12-20T04:59:58.761Z,-0.66
2016-12-20T05:00:58.774Z,-0.72
2016-12-20T05:01:58.733Z,-0.59
2016-12-20T05:02:58.784Z,-0.56
2016-12-20T05:03:58.667Z,-0.56
2016-12-20T05:04:58.780Z,-0.34
2016-12-20T05:05:58.964Z,-0.28
2016-12-20T05:06:58.755Z,-0.28
2016-12-20T05:07:58.746Z,-0.41
2016-12-20T05:08:58.734Z,-0.49
2016-12-20T05:09:58.686Z,-0.55
2016-12-20T05:10:58.766Z,-0.45
2016-12-20T05:11:58.758Z,-0.55
2016-12-20T05:12:58.698Z,-0.51
2016-12-20T05:13:58.807Z,-0.52
2016-12-20T05:14:58.798Z,-0.51
2016-12-20T05:15:58.812Z,-0.52
2016-12-20T05:16:58.763Z,-0.45
2016-12-20T05:17:58.705Z,-0.52
2016-12-20T05:18:58.703Z,-0.38
2016-12-20T05:19:58.727Z,-0.27
2016-12-20T05:20:58.831Z,-0.16
2016-12-20T05:21:58.837Z,-0.2
2016-12-20T05:22:58.794Z,-0.4
2016-12-20T05:23:58.773Z,-0.46
2016-12-20T05:24:58.771Z,-0.54
2016-12-20T05:25:58.729Z,-0.58
2016-12-20T05:26:58.731Z,-0.59
2016-12-20T05:27:58.858Z,-0.56
2016-12-20T05:28:58.763Z,-0.58
2016-12-20T05:29:58.847Z,-0.62
2016-12-20T05:30:58.789Z,-0.62
2016-12-20T05:31:58.801Z,-0.61
2016-12-20T05:32:58.831Z,-0.52
2016-12-20T05:33:58.795Z,-0.51
2016-12-20T05:34:58.747Z,-0.66
2016-12-20T05:35:58.868Z,-0.67
2016-12-20T05:36:58.758Z,-0.76
2016-12-20T05:37:58.880Z,-0.74
2016-12-20T05:38:58.816Z,-0.72
2016-12-20T05:39:58.766Z,-0.79
2016-12-20T05:40:58.822Z,-0.8
2016-12-20T05:41:58.828Z,-0.7
2016-12-20T05:42:58.839Z,-0.8
2016-12-20T05:43:58.833Z,-0.76
2016-12-20T05:44:58.823Z,-0.85
2016-12-20T05:45:58.782Z,-0.8
2016-12-20T05:46:58.843Z,-0.8
2016-12-20T05:47:58.785Z,-0.76
2016-12-20T05:48:58.824Z,-0.74
2016-12-20T05:49:58.798Z,-0.73
2016-12-20T05:50:58.853Z,-0.69
2016-12-20T05:51:58.858Z,-0.41
2016-12-20T05:52:58.879Z,-0.27
2016-12-20T05:53:58.849Z,-0.16
2016-12-20T05:54:58.891Z,-0.07
2016-12-20T05:55:58.868Z,-0.16
2016-12-20T05:56:58.833Z,-0.16
2016-12-20T05:57:58.950Z,-0.2
2016-12-20T05:58:58.878Z,-0.19
2016-12-20T05:59:59.001Z,-0.33
2016-12-20T06:00:58.879Z,-0.4
2016-12-20T06:01:58.821Z,-0.45
2016-12-20T06:02:58.961Z,-0.48
2016-12-20T06:03:58.965Z,-0.46
2016-12-20T06:04:58.892Z,-0.43
2016-12-20T06:05:58.876Z,-0.37
2016-12-20T06:06:58.823Z,-0.28
2016-12-20T06:07:58.950Z,-0.25
2016-12-20T06:08:58.949Z,-0.23
2016-12-20T06:09:58.932Z,-0.36
2016-12-20T06:10:58.885Z,-0.33
2016-12-20T06:11:58.901Z,-0.34
2016-12-20T06:12:58.897Z,-0.38
2016-12-20T06:13:58.894Z,-0.36
2016-12-20T06:14:58.923Z,-0.34
2016-12-20T06:15:58.874Z,-0.28
2016-12-20T06:16:58.860Z,-0.25
2016-12-20T06:17:58.878Z,-0.36
2016-12-20T06:18:58.930Z,-0.37
2016-12-20T06:19:58.992Z,-0.34
2016-12-20T06:20:58.944Z,-0.25
2016-12-20T06:21:58.874Z,-0.22
2016-12-20T06:22:58.902Z,-0.27
2016-12-20T06:23:58.939Z,-0.25
2016-12-20T06:24:58.938Z,-0.34
2016-12-20T06:25:59.033Z,-0.43
2016-12-20T06:26:58.880Z,-0.55
2016-12-20T06:27:58.961Z,-0.52
2016-12-20T06:28:58.886Z,-0.58
2016-12-20T06:29:59.024Z,-0.52
2016-12-20T06:30:58.911Z,-0.59
2016-12-20T06:31:58.978Z,-0.52
2016-12-20T06:32:58.970Z,-0.46
2016-12-20T06:33:59.028Z,-0.46
2016-12-20T06:34:58.973Z,-0.46
2016-12-20T06:35:58.977Z,-0.37
2016-12-20T06:36:58.908Z,-0.34
2016-12-20T06:37:59.021Z,-0.48
2016-12-20T06:38:59.041Z,-0.28
2016-12-20T06:39:58.992Z,-0.15
2016-12-20T06:40:58.995Z,-0.05
2016-12-20T06:41:59.005Z,0.09
2016-12-20T06:42:59.002Z,0.16
2016-12-20T06:43:59.014Z,0.09
2016-12-20T06:44:59.123Z,0.2
2016-12-20T06:45:59.004Z,0.09
2016-12-20T06:46:58.982Z,0.03
2016-12-20T06:47:59.025Z,0.06
2016-12-20T06:48:59.030Z,0.09
2016-12-20T06:49:59.062Z,-0.05
2016-12-20T06:50:59.081Z,-0.23
2016-12-20T06:51:59.070Z,-0.19
2016-12-20T06:52:59.078Z,-0.27
2016-12-20T06:53:58.961Z,-0.37
2016-12-20T06:54:59.085Z,-0.41
2016-12-20T06:55:59.076Z,-0.54
2016-12-20T06:56:59.083Z,-0.46
2016-12-20T06:57:58.984Z,-0.48
2016-12-20T06:58:59.041Z,-0.58
2016-12-20T06:59:59.056Z,-0.54
2016-12-20T07:00:58.986Z,-0.61
2016-12-20T07:01:58.994Z,-0.58
2016-12-20T07:02:59.218Z,-0.49
2016-12-20T07:03:59.131Z,-0.48
2016-12-20T07:04:59.055Z,-0.58
2016-12-20T07:05:59.136Z,-0.45
2016-12-20T07:06:59.094Z,-0.46
2016-12-20T07:07:59.198Z,-0.49
2016-12-20T07:08:59.120Z,-0.61
2016-12-20T07:09:59.183Z,-0.54
2016-12-20T07:10:59.052Z,-0.52
2016-12-20T07:11:59.096Z,-0.51
2016-12-20T07:12:59.238Z,-0.59
2016-12-20T07:13:59.245Z,-0.56
2016-12-20T07:14:59.187Z,-0.55
2016-12-20T07:15:59.071Z,-0.7
2016-12-20T07:16:59.092Z,-0.67
2016-12-20T07:17:59.083Z,-0.54
2016-12-20T07:18:59.074Z,-0.66
2016-12-20T07:19:59.098Z,-0.62
2016-12-20T07:20:59.139Z,-0.66
2016-12-20T07:21:59.096Z,-0.8
2016-12-20T07:22:59.189Z,-0.79
2016-12-20T07:23:59.053Z,-0.77
2016-12-20T07:24:59.070Z,-0.7
2016-12-20T07:25:59.131Z,-0.8
2016-12-20T07:26:59.091Z,-0.76
2016-12-20T07:27:59.185Z,-0.84
2016-12-20T07:28:59.255Z,-0.93
2016-12-20T07:29:59.214Z,-0.98
2016-12-20T07:30:59.197Z,-1.01
2016-12-20T07:31:59.151Z,-1.01
2016-12-20T07:32:59.188Z,-1.01
2016-12-20T07:33:59.102Z,-0.96
2016-12-20T07:34:59.219Z,-0.93
2016-12-20T07:35:59.166Z,-0.96
2016-12-20T07:36:59.225Z,-1.09
2016-12-20T07:37:59.182Z,-1.06
2016-12-20T07:38:59.143Z,-1.1
2016-12-20T07:39:59.209Z,-1.14
2016-12-20T07:40:59.205Z,-1.28
2016-12-20T07:41:59.147Z,-1.13
2016-12-20T07:42:59.207Z,-0.99
2016-12-20T07:43:59.224Z,-1.07
2016-12-20T07:44:59.200Z,-0.93
2016-12-20T07:45:59.145Z,-0.96
2016-12-20T07:46:59.219Z,-1.01
2016-12-20T07:47:59.122Z,-0.99
2016-12-20T07:48:59.162Z,-0.85
2016-12-20T07:49:59.118Z,-0.87
2016-12-20T07:50:59.188Z,-0.92
2016-12-20T07:51:59.272Z,-0.99
2016-12-20T07:52:59.259Z,-1.03
2016-12-20T07:53:59.208Z,-0.99
2016-12-20T07:54:59.355Z,-1.06
2016-12-20T07:55:59.299Z,-1.01
2016-12-20T07:56:59.204Z,-0.98
2016-12-20T07:57:59.353Z,-1.03
2016-12-20T07:58:59.216Z,-0.96
2016-12-20T07:59:59.211Z,-1.01
2016-12-20T08:00:59.133Z,-0.93
2016-12-20T08:01:59.217Z,-0.91
2016-12-20T08:02:59.275Z,-0.84
2016-12-20T08:03:59.269Z,-0.7
2016-12-20T08:04:59.270Z,-0.66
2016-12-20T08:05:59.276Z,-0.59
2016-12-20T08:06:59.287Z,-0.46
2016-12-20T08:07:59.214Z,-0.56
2016-12-20T08:08:59.157Z,-0.52
2016-12-20T08:09:59.280Z,-0.54
2016-12-20T08:10:59.233Z,-0.48
2016-12-20T08:11:59.217Z,-0.36
2016-12-20T08:12:59.266Z,-0.27
2016-12-20T08:13:59.315Z,-0.38
2016-12-20T08:14:59.237Z,-0.28
2016-12-20T08:15:59.323Z,-0.3
2016-12-20T08:16:59.244Z,-0.2
2016-12-20T08:17:59.453Z,-0.07
2016-12-20T08:18:59.346Z,-0.12
2016-12-20T08:19:59.233Z,-0.1
2016-12-20T08:20:59.414Z,-0.07
2016-12-20T08:21:59.277Z,-0.22
2016-12-20T08:22:59.288Z,-0.23
2016-12-20T08:23:59.348Z,-0.23
2016-12-20T08:24:59.371Z,-0.19
2016-12-20T08:25:59.363Z,-0.15
2016-12-20T08:26:59.277Z,-0.25
2016-12-20T08:27:59.349Z,-0.16
2016-12-20T08:28:59.272Z,-0.1
2016-12-20T08:29:59.285Z,-0.16
2016-12-20T08:30:59.286Z,-0.05
2016-12-20T08:31:59.296Z,-0.1
2016-12-20T08:32:59.251Z,-0.05
2016-12-20T08:33:59.402Z,0.06
2016-12-20T08:34:59.354Z,0.05
2016-12-20T08:35:59.234Z,0.06
2016-12-20T08:36:59.228Z,0.05
2016-12-20T08:37:59.281Z,0.16
2016-12-20T08:38:59.335Z,0.19
2016-12-20T08:39:59.390Z,0.32
2016-12-20T08:40:59.374Z,0.31
2016-12-20T08:41:59.313Z,0.44
2016-12-20T08:42:59.331Z,0.42
2016-12-20T08:43:59.319Z,0.57
2016-12-20T08:44:59.319Z,0.53
2016-12-20T08:45:59.399Z,0.63
2016-12-20T08:46:59.324Z,0.69
2016-12-20T08:47:59.409Z,0.6
2016-12-20T08:48:59.429Z,0.6
2016-12-20T08:49:59.537Z,0.61
2016-12-20T08:50:59.454Z,0.63
2016-12-20T08:51:59.450Z,0.61
2016-12-20T08:53:00.152Z,0.71
2016-12-20T08:53:59.533Z,0.76
2016-12-20T08:54:59.541Z,0.81
2016-12-20T08:55:59.360Z,0.89
2016-12-20T08:56:59.464Z,0.89
2016-12-20T08:57:59.406Z,0.9
2016-12-20T08:58:59.345Z,0.99
2016-12-20T08:59:59.372Z,0.96
2016-12-20T09:00:59.491Z,0.92
2016-12-20T09:01:59.402Z,1
2016-12-20T09:02:59.329Z,1.08
2016-12-20T09:03:59.341Z,1.15
2016-12-20T09:04:59.404Z,1.14
2016-12-20T09:05:59.398Z,1.21
2016-12-20T09:06:59.431Z,1.2
2016-12-20T09:07:59.376Z,1.28
2016-12-20T09:08:59.328Z,1.21
2016-12-20T09:09:59.472Z,1.29
2016-12-20T09:10:59.485Z,1.35
2016-12-20T09:11:59.491Z,1.4
2016-12-20T09:12:59.519Z,1.68
2016-12-20T09:13:59.544Z,1.68
2016-12-20T09:14:59.412Z,1.68
2016-12-20T09:15:59.430Z,2.01
2016-12-20T09:16:59.549Z,2.18
2016-12-20T09:17:59.481Z,2.29
2016-12-20T09:18:59.515Z,2.42
2016-12-20T09:19:59.497Z,2.62
2016-12-20T09:20:59.458Z,2.73
2016-12-20T09:21:59.558Z,2.95
2016-12-20T09:22:59.595Z,3.17
2016-12-20T09:23:59.459Z,3.09
2016-12-20T09:24:59.832Z,3.29
2016-12-20T09:25:59.447Z,3.48
2016-12-20T09:26:59.605Z,3.63
2016-12-20T09:27:59.484Z,3.69
2016-12-20T09:28:59.502Z,3.57
2016-12-20T09:29:59.583Z,4.02
2016-12-20T09:30:59.475Z,3.79
2016-12-20T09:31:59.562Z,4.03
2016-12-20T09:32:59.540Z,4.1
2016-12-20T09:33:59.425Z,4.08
2016-12-20T09:34:59.542Z,4.08
2016-12-20T09:35:59.549Z,4.18
2016-12-20T09:36:59.484Z,4.29
2016-12-20T09:37:59.554Z,4.33
2016-12-20T09:38:59.523Z,4.53
2016-12-20T09:39:59.452Z,4.74
2016-12-20T09:40:59.495Z,5
2016-12-20T09:41:59.524Z,5.15
2016-12-20T09:42:59.584Z,5.28
2016-12-20T09:43:59.543Z,5.2
2016-12-20T09:44:59.439Z,5.27
2016-12-20T09:45:59.530Z,5.28
2016-12-20T09:46:59.443Z,5.42
2016-12-20T09:47:59.422Z,5.54
2016-12-20T09:48:59.564Z,5.52
2016-12-20T09:49:59.524Z,5.63
2016-12-20T09:50:59.487Z,5.84
2016-12-20T09:51:59.470Z,5.88
2016-12-20T09:52:59.461Z,6.07
2016-12-20T09:53:59.703Z,6.25
2016-12-20T09:54:59.523Z,6.29
2016-12-20T09:55:59.556Z,6.57
2016-12-20T09:56:59.712Z,6.54
2016-12-20T09:57:59.848Z,6.51
2016-12-20T09:58:59.711Z,6.55
2016-12-20T09:59:59.556Z,6.49
2016-12-20T10:00:59.494Z,6.09
2016-12-20T10:01:59.523Z,6.03
2016-12-20T10:02:59.528Z,5.96
2016-12-20T10:03:59.647Z,5.99
2016-12-20T10:04:59.692Z,5.88
2016-12-20T10:05:59.662Z,5.95
2016-12-20T10:06:59.530Z,5.99
2016-12-20T10:07:59.645Z,6.17
2016-12-20T10:08:59.572Z,6.39
2016-12-20T10:09:59.568Z,6.54
2016-12-20T10:10:59.650Z,6.55
2016-12-20T10:11:59.581Z,6.54
2016-12-20T10:12:59.498Z,6.55
2016-12-20T10:13:59.629Z,6.75
2016-12-20T10:14:59.628Z,6.72
2016-12-20T10:15:59.512Z,6.85
2016-12-20T10:16:59.618Z,6.76
2016-12-20T10:17:59.589Z,6.68
2016-12-20T10:18:59.668Z,6.65
2016-12-20T10:19:59.621Z,6.91
2016-12-20T10:20:59.653Z,7.08
2016-12-20T10:21:59.634Z,7.05
2016-12-20T10:22:59.601Z,6.93
2016-12-20T10:23:59.947Z,6.65
2016-12-20T10:24:59.758Z,6.78
2016-12-20T10:25:59.573Z,6.86
2016-12-20T10:26:59.788Z,6.61
2016-12-20T10:27:59.698Z,6.61
2016-12-20T10:28:59.734Z,6.72
2016-12-20T10:29:59.806Z,6.65
2016-12-20T10:30:59.579Z,6.54
2016-12-20T10:31:59.652Z,6.54
2016-12-20T10:32:59.657Z,6.49
2016-12-20T10:33:59.785Z,6.68
2016-12-20T10:34:59.664Z,6.93
2016-12-20T10:35:59.664Z,6.91
2016-12-20T10:36:59.691Z,7.11
2016-12-20T10:37:59.742Z,7.01
2016-12-20T10:38:59.758Z,7.11
2016-12-20T10:39:59.639Z,7.33
2016-12-20T10:40:59.745Z,7.37
2016-12-20T10:41:59.651Z,7.45
2016-12-20T10:42:59.678Z,7.33
2016-12-20T10:43:59.614Z,7.59
2016-12-20T10:44:59.858Z,7.67
2016-12-20T10:45:59.743Z,7.83
2016-12-20T10:46:59.639Z,7.89
2016-12-20T10:47:59.677Z,7.82
2016-12-20T10:48:59.711Z,7.96
2016-12-20T10:49:59.934Z,7.89
2016-12-20T10:51:00.427Z,7.7
2016-12-20T10:52:00.039Z,7.77
2016-12-20T10:52:59.883Z,8.11
2016-12-20T10:53:59.876Z,8.21
2016-12-20T10:54:59.657Z,7.93
2016-12-20T10:55:59.716Z,7.82
2016-12-20T10:56:59.704Z,7.47
2016-12-20T10:57:59.731Z,7.45
2016-12-20T10:59:00.023Z,7.13
2016-12-20T10:59:59.851Z,7.23
2016-12-20T11:00:59.784Z,7.41
2016-12-20T11:01:59.812Z,7.68
2016-12-20T11:02:59.715Z,7.7
2016-12-20T11:03:59.716Z,7.39
2016-12-20T11:04:59.765Z,7.47
2016-12-20T11:05:59.884Z,7.59
2016-12-20T11:06:59.836Z,7.45
2016-12-20T11:07:59.809Z,6.98
2016-12-20T11:08:59.789Z,6.85
2016-12-20T11:09:59.860Z,6.86
2016-12-20T11:10:59.959Z,7.26
2016-12-20T11:11:59.762Z,7.48
2016-12-20T11:12:59.811Z,7.54
2016-12-20T11:13:59.804Z,7.45
2016-12-20T11:14:59.744Z,7.47
2016-12-20T11:15:59.740Z,7.09
2016-12-20T11:16:59.791Z,7.23
2016-12-20T11:17:59.778Z,7.44
2016-12-20T11:18:59.898Z,7.33
2016-12-20T11:20:00.280Z,7.44
2016-12-20T11:21:00.446Z,7.23
2016-12-20T11:22:00.215Z,7.3
2016-12-20T11:23:00.759Z,7.49
2016-12-20T11:24:00.340Z,7.88
2016-12-20T11:24:59.776Z,7.82
2016-12-20T11:25:59.852Z,7.74
2016-12-20T11:26:59.913Z,7.63
2016-12-20T11:27:59.733Z,7.86
2016-12-20T11:28:59.760Z,7.98
2016-12-20T11:30:00.310Z,7.93
2016-12-20T11:30:59.811Z,8.1
2016-12-20T11:31:59.893Z,8.07
2016-12-20T11:33:02.777Z,7.92
2016-12-20T11:33:59.871Z,8.03
2016-12-20T11:34:59.798Z,8.04
2016-12-20T11:35:59.768Z,7.74
2016-12-20T11:36:59.897Z,7.56
2016-12-20T11:37:59.838Z,7.77
2016-12-20T11:38:59.920Z,7.91
2016-12-20T11:39:59.820Z,8.24
2016-12-20T11:40:59.778Z,8.21
2016-12-20T11:41:59.844Z,8.32
2016-12-20T11:43:00.083Z,8.28
2016-12-20T11:43:59.880Z,8.42
2016-12-20T11:44:59.795Z,8.49
2016-12-20T11:45:59.905Z,8.77
2016-12-20T11:46:59.927Z,8.82
2016-12-20T11:47:59.875Z,8.5
2016-12-20T11:48:59.801Z,8.35
2016-12-20T11:49:59.782Z,8.28
2016-12-20T11:51:00.044Z,8.44
2016-12-20T11:51:59.901Z,8.21
2016-12-20T11:52:59.933Z,7.82
2016-12-20T11:54:00.007Z,7.71
2016-12-20T11:54:59.791Z,7.86
2016-12-20T11:55:59.852Z,7.96
2016-12-20T11:56:59.871Z,8.07
2016-12-20T11:57:59.934Z,7.95
2016-12-20T11:59:03.144Z,8.17
2016-12-20T12:00:03.140Z,8.17
2016-12-20T12:01:01.170Z,8.17
2016-12-20T12:02:02.579Z,8.43
2016-12-20T12:03:00.002Z,8.29
2016-12-20T12:04:02.281Z,8.16
2016-12-20T12:05:00.017Z,8.24
2016-12-20T12:05:59.895Z,7.98
2016-12-20T12:06:59.888Z,8.07
2016-12-20T12:07:59.879Z,8.16
2016-12-20T12:08:59.845Z,8.09
2016-12-20T12:09:59.992Z,8.17
2016-12-20T12:10:59.989Z,8.4
2016-12-20T12:11:59.855Z,8.61
2016-12-20T12:12:59.893Z,8.39
2016-12-20T12:13:59.871Z,7.74
2016-12-20T12:15:00.144Z,7.22
2016-12-20T12:15:59.969Z,7.54
2016-12-20T12:16:59.924Z,7.45
2016-12-20T12:18:00.036Z,7.61
2016-12-20T12:19:00.546Z,7.78
2016-12-20T12:19:59.867Z,7.74
2016-12-20T12:20:59.984Z,7.48
2016-12-20T12:21:59.884Z,7.44
2016-12-20T12:22:59.975Z,7.59
2016-12-20T12:23:59.944Z,7.85
2016-12-20T12:24:59.974Z,7.83
2016-12-20T12:25:59.961Z,7.75
2016-12-20T12:27:00.090Z,7.45
2016-12-20T12:28:00.236Z,7.19
2016-12-20T12:28:59.881Z,7.39
2016-12-20T12:29:59.938Z,7.36
2016-12-20T12:31:00.044Z,7.49
2016-12-20T12:32:00.089Z,7.41
2016-12-20T12:33:00.130Z,7.41
2016-12-20T12:34:00.033Z,7.29
2016-12-20T12:34:59.974Z,7.31
2016-12-20T12:35:59.956Z,7.27
2016-12-20T12:37:00.028Z,7.16
2016-12-20T12:37:59.957Z,7.29
2016-12-20T12:39:00.025Z,7.19
2016-12-20T12:40:00.047Z,7.27
2016-12-20T12:41:00.232Z,7.29
2016-12-20T12:41:59.955Z,7.21
2016-12-20T12:42:59.984Z,7.19
2016-12-20T12:44:00.017Z,6.85
2016-12-20T12:45:00.023Z,6.98
2016-12-20T12:46:00.037Z,7.08
2016-12-20T12:47:00.047Z,7.22
2016-12-20T12:48:00.034Z,7.03
2016-12-20T12:49:00.090Z,6.93
2016-12-20T12:49:59.959Z,6.61
2016-12-20T12:51:00.058Z,6.57
2016-12-20T12:52:00.153Z,6.49
2016-12-20T12:52:59.979Z,6.43
2016-12-20T12:54:00.120Z,6.2
2016-12-20T12:55:00.283Z,5.95
2016-12-20T12:56:00.048Z,6.03
2016-12-20T12:57:00.122Z,5.99
2016-12-20T12:58:00.885Z,6.03
2016-12-20T12:59:06.993Z,6.03
2016-12-20T13:00:00.034Z,5.81
2016-12-20T13:01:00.151Z,5.8
2016-12-20T13:02:00.113Z,5.92
2016-12-20T13:03:00.174Z,5.91
2016-12-20T13:04:00.179Z,5.84
2016-12-20T13:05:00.107Z,5.84
2016-12-20T13:06:03.078Z,5.82
2016-12-20T13:07:00.136Z,5.77
2016-12-20T13:08:00.216Z,5.75
2016-12-20T13:09:00.034Z,5.82